Time;durP1;ratioP1;P1;durP2;ratioP2;P2;SDS_P1;SDS_P2;PMS_P1;PMS_P2;Temp;Humidity;BMP_temperature;BMP_pressure;BME280_temperature;BME280_humidity;BME280_pressure;Samples;Min_cycle;Max_cycle;Signal;HPM_P1;HPM_P2
2023/03/30 00:01:00;;;;;;;5.25;3.50;;;;;;;;;;4973417;28;20200;-70
2023/03/30 00:03:26;;;;;;;4.10;2.92;;;;;;;;;;4973574;28;20676;-67
2023/03/30 00:05:55;;;;;;;4.97;3.10;;;;;;;;;;4973575;28;20176;-68
2023/03/30 00:08:20;;;;;;;8.20;3.78;;;;;;;;;;4976439;28;20631;-67
2023/03/30 00:10:46;;;;;;;4.63;3.17;;;;;;;;;;4973502;28;20191;-66
2023/03/30 00:13:12;;;;;;;5.72;3.05;;;;;;;;;;4972105;28;20187;-66
2023/03/30 00:15:37;;;;;;;3.38;2.75;;;;;;;;;;4972484;28;20181;-67
2023/03/30 00:18:02;;;;;;;6.90;2.75;;;;;;;;;;4973278;28;20263;-66
2023/03/30 00:20:31;;;;;;;6.97;3.70;;;;;;;;;;4968635;28;20244;-66
2023/03/30 00:22:56;;;;;;;5.13;3.17;;;;;;;;;;4967140;28;20207;-66
2023/03/30 00:25:22;;;;;;;5.32;3.33;;;;;;;;;;4972856;28;20721;-66
2023/03/30 00:27:47;;;;;;;6.28;2.67;;;;;;;;;;4973313;28;20258;-66
2023/03/30 00:30:14;;;;;;;6.68;3.30;;;;;;;;;;4972911;28;20211;-67
2023/03/30 00:32:39;;;;;;;5.32;2.92;;;;;;;;;;4973469;28;20650;-67
2023/03/30 00:35:05;;;;;;;5.40;2.90;;;;;;;;;;4971794;28;20180;-67
2023/03/30 00:37:31;;;;;;;5.88;2.90;;;;;;;;;;4973421;28;20203;-66
2023/03/30 00:39:56;;;;;;;5.32;2.70;;;;;;;;;;4972925;28;20210;-68
2023/03/30 00:42:21;;;;;;;4.32;2.53;;;;;;;;;;4972290;28;20164;-68
2023/03/30 00:45:05;;;;;;;2.67;2.40;;;;;;;;;;4972504;28;20189;-66
2023/03/30 00:47:30;;;;;;;3.38;1.90;;;;;;;;;;4968474;28;20168;-66
2023/03/30 00:49:55;;;;;;;4.32;2.85;;;;;;;;;;4972870;28;20211;-66
2023/03/30 00:52:23;;;;;;;5.20;2.67;;;;;;;;;;4972851;28;20173;-66
2023/03/30 00:54:50;;;;;;;4.15;2.00;;;;;;;;;;4972628;28;20181;-66
2023/03/30 00:57:16;;;;;;;3.92;2.00;;;;;;;;;;4972844;28;20173;-67
2023/03/30 00:59:41;;;;;;;4.38;2.53;;;;;;;;;;4972476;28;20339;-69
2023/03/30 01:02:07;;;;;;;5.00;1.95;;;;;;;;;;4968386;28;20287;-66
2023/03/30 01:04:36;;;;;;;6.32;2.08;;;;;;;;;;4969637;28;20176;-65
2023/03/30 01:07:03;;;;;;;3.13;2.33;;;;;;;;;;4972263;28;20852;-66
2023/03/30 01:09:28;;;;;;;4.85;2.55;;;;;;;;;;4966960;28;20197;-66
2023/03/30 01:11:53;;;;;;;6.85;2.10;;;;;;;;;;4970205;28;20187;-66
2023/03/30 01:14:19;;;;;;;10.07;3.55;;;;;;;;;;4971216;28;20533;-67
2023/03/30 01:16:47;;;;;;;3.72;2.20;;;;;;;;;;4974745;28;20235;-66
2023/03/30 01:19:15;;;;;;;5.93;2.20;;;;;;;;;;4965609;28;20238;-67
2023/03/30 01:21:44;;;;;;;5.82;2.38;;;;;;;;;;4972269;28;20610;-67
2023/03/30 01:24:19;;;;;;;3.35;2.47;;;;;;;;;;4970703;28;20185;-66
2023/03/30 01:26:48;;;;;;;4.80;1.83;;;;;;;;;;4972018;28;20242;-66
2023/03/30 01:29:19;;;;;;;6.75;2.28;;;;;;;;;;4972344;28;20208;-67
2023/03/30 01:32:06;;;;;;;4.28;2.78;;;;;;;;;;4972328;28;20275;-67
2023/03/30 01:34:40;;;;;;;4.60;2.40;;;;;;;;;;4966870;28;20263;-67
2023/03/30 01:37:24;;;;;;;3.88;2.20;;;;;;;;;;4971042;28;20184;-66
2023/03/30 01:40:07;;;;;;;5.10;2.50;;;;;;;;;;4970478;28;20761;-67
2023/03/30 01:43:02;;;;;;;4.45;2.42;;;;;;;;;;4964159;28;20184;-66
2023/03/30 01:45:27;;;;;;;3.70;2.33;;;;;;;;;;4968595;28;20233;-66
2023/03/30 01:48:07;;;;;;;3.47;2.63;;;;;;;;;;4965776;28;20176;-67
2023/03/30 01:50:32;;;;;;;4.07;2.03;;;;;;;;;;4970507;28;20200;-67
2023/03/30 01:52:58;;;;;;;4.13;2.42;;;;;;;;;;4971016;28;20700;-67
2023/03/30 01:55:26;;;;;;;6.40;3.30;;;;;;;;;;4970882;28;20681;-67
2023/03/30 01:57:54;;;;;;;6.22;3.35;;;;;;;;;;4970027;28;20314;-67
2023/03/30 02:00:21;;;;;;;4.88;2.90;;;;;;;;;;4969395;28;20303;-66
2023/03/30 02:02:55;;;;;;;4.25;2.15;;;;;;;;;;4970180;28;20177;-66
2023/03/30 02:05:21;;;;;;;5.30;2.55;;;;;;;;;;4970719;28;20180;-66
2023/03/30 02:07:54;;;;;;;5.72;2.60;;;;;;;;;;4970085;28;20243;-66
2023/03/30 02:10:21;;;;;;;6.18;2.55;;;;;;;;;;4971725;28;20198;-66
2023/03/30 02:12:47;;;;;;;5.15;2.95;;;;;;;;;;4969152;28;20267;-66
2023/03/30 02:15:14;;;;;;;3.53;2.53;;;;;;;;;;4975898;28;20339;-65
2023/03/30 02:17:41;;;;;;;5.03;2.25;;;;;;;;;;4975574;28;20697;-65
2023/03/30 02:20:11;;;;;;;3.55;2.05;;;;;;;;;;4975547;28;20306;-66
2023/03/30 02:22:36;;;;;;;5.25;2.42;;;;;;;;;;4966448;28;20372;-66
2023/03/30 02:25:01;;;;;;;4.55;2.17;;;;;;;;;;4975264;28;20702;-66
2023/03/30 02:27:27;;;;;;;4.65;2.30;;;;;;;;;;4975912;28;20184;-66
2023/03/30 02:29:53;;;;;;;4.78;2.28;;;;;;;;;;5004091;23;20268;-70
2023/03/30 02:32:23;;;;;;;3.92;2.75;;;;;;;;;;5017589;28;20167;-70
2023/03/30 02:34:57;;;;;;;3.88;2.65;;;;;;;;;;5009754;28;20195;-70
2023/03/30 02:37:36;;;;;;;3.42;1.70;;;;;;;;;;5013112;28;20229;-70
2023/03/30 02:40:19;;;;;;;3.88;2.95;;;;;;;;;;5008964;28;20317;-70
2023/03/30 02:42:53;;;;;;;4.13;2.03;;;;;;;;;;5003705;28;20175;-71
2023/03/30 02:45:37;;;;;;;5.97;2.20;;;;;;;;;;5014482;28;20167;-70
2023/03/30 02:48:35;;;;;;;5.47;1.73;;;;;;;;;;5009677;28;20262;-71
2023/03/30 02:51:12;;;;;;;7.32;2.08;;;;;;;;;;4976096;28;20215;-70
2023/03/30 02:53:39;;;;;;;3.53;1.98;;;;;;;;;;5005626;28;20203;-70
2023/03/30 02:56:11;;;;;;;6.03;2.08;;;;;;;;;;5011144;28;20183;-71
2023/03/30 02:58:52;;;;;;;4.60;2.45;;;;;;;;;;5014289;28;20171;-70
2023/03/30 03:01:25;;;;;;;3.65;1.65;;;;;;;;;;5007125;28;20595;-71
2023/03/30 03:03:52;;;;;;;4.25;1.90;;;;;;;;;;5012916;28;20238;-70
2023/03/30 03:06:19;;;;;;;3.53;2.00;;;;;;;;;;5009240;28;20182;-70
2023/03/30 03:08:46;;;;;;;3.33;1.58;;;;;;;;;;5006898;28;20202;-70
2023/03/30 03:11:12;;;;;;;3.72;1.95;;;;;;;;;;5009099;28;20644;-71
2023/03/30 03:13:37;;;;;;;3.72;1.83;;;;;;;;;;5011681;28;20183;-71
2023/03/30 03:16:03;;;;;;;4.15;1.75;;;;;;;;;;5011314;28;20221;-70
2023/03/30 03:18:28;;;;;;;3.05;1.55;;;;;;;;;;5015060;28;20186;-70
2023/03/30 03:20:53;;;;;;;3.25;1.80;;;;;;;;;;5014822;28;20313;-70
2023/03/30 03:23:18;;;;;;;6.93;1.38;;;;;;;;;;5011294;28;20564;-70
2023/03/30 03:25:44;;;;;;;4.95;1.40;;;;;;;;;;5009701;28;20262;-70
2023/03/30 03:28:09;;;;;;;1.48;1.20;;;;;;;;;;5009201;28;20755;-69
2023/03/30 03:30:34;;;;;;;6.90;1.60;;;;;;;;;;5013801;28;20704;-70
2023/03/30 03:33:00;;;;;;;2.38;1.40;;;;;;;;;;5014267;28;20197;-70
2023/03/30 03:35:26;;;;;;;5.40;1.60;;;;;;;;;;5013132;28;20185;-69
2023/03/30 03:37:51;;;;;;;2.92;1.95;;;;;;;;;;5005907;28;20182;-69
2023/03/30 03:40:16;;;;;;;3.00;1.17;;;;;;;;;;5008987;28;20314;-70
2023/03/30 03:42:41;;;;;;;1.67;1.20;;;;;;;;;;5013831;28;20523;-69
2023/03/30 03:45:07;;;;;;;4.55;1.70;;;;;;;;;;5012258;28;20175;-70
2023/03/30 03:47:33;;;;;;;3.88;1.02;;;;;;;;;;5011917;28;20179;-70
2023/03/30 03:49:59;;;;;;;4.47;1.25;;;;;;;;;;5009728;28;20607;-70
2023/03/30 03:52:25;;;;;;;5.07;1.38;;;;;;;;;;5007093;28;20171;-70
2023/03/30 03:54:50;;;;;;;5.38;1.58;;;;;;;;;;5005670;28;20553;-70
2023/03/30 03:57:15;;;;;;;3.58;1.80;;;;;;;;;;5009455;28;20181;-70
2023/03/30 03:59:40;;;;;;;3.92;1.38;;;;;;;;;;5008234;28;20349;-71
2023/03/30 04:02:06;;;;;;;7.95;2.03;;;;;;;;;;5011029;28;20294;-69
2023/03/30 04:04:31;;;;;;;5.20;2.53;;;;;;;;;;5006335;28;20586;-70
2023/03/30 04:06:56;;;;;;;4.70;1.63;;;;;;;;;;5005053;28;20661;-70
2023/03/30 04:09:22;;;;;;;5.07;1.65;;;;;;;;;;5014909;28;20703;-70
2023/03/30 04:11:47;;;;;;;5.70;1.60;;;;;;;;;;5009339;28;20195;-70
2023/03/30 04:14:12;;;;;;;3.20;1.27;;;;;;;;;;5012149;28;20243;-70
2023/03/30 04:16:37;;;;;;;4.05;1.70;;;;;;;;;;5007243;28;20715;-70
2023/03/30 04:19:03;;;;;;;3.55;1.60;;;;;;;;;;5008637;28;20308;-70
2023/03/30 04:21:28;;;;;;;2.35;1.70;;;;;;;;;;5002097;28;20199;-70
2023/03/30 04:23:54;;;;;;;6.25;2.00;;;;;;;;;;5006055;28;20221;-70
2023/03/30 04:26:19;;;;;;;7.88;2.05;;;;;;;;;;5003629;28;20225;-70
2023/03/30 04:28:45;;;;;;;5.13;1.67;;;;;;;;;;5008922;28;20175;-70
2023/03/30 04:31:11;;;;;;;3.10;1.83;;;;;;;;;;5002126;28;20194;-70
2023/03/30 04:33:40;;;;;;;6.93;2.08;;;;;;;;;;5009461;28;20329;-71
2023/03/30 04:36:05;;;;;;;7.38;1.90;;;;;;;;;;5006486;28;20236;-71
2023/03/30 04:38:30;;;;;;;5.65;1.58;;;;;;;;;;5003944;28;20187;-72
2023/03/30 04:40:56;;;;;;;6.90;2.13;;;;;;;;;;5011272;28;20218;-72
2023/03/30 04:43:22;;;;;;;3.92;2.00;;;;;;;;;;4996168;28;20618;-71
2023/03/30 04:45:49;;;;;;;7.93;3.00;;;;;;;;;;5004341;28;20202;-71
2023/03/30 04:48:15;;;;;;;6.18;1.85;;;;;;;;;;5008490;28;20183;-72
2023/03/30 04:50:40;;;;;;;6.45;1.70;;;;;;;;;;5010451;28;20198;-71
2023/03/30 04:53:06;;;;;;;5.38;1.50;;;;;;;;;;5009191;28;20186;-70
2023/03/30 04:55:31;;;;;;;10.57;3.22;;;;;;;;;;5011735;28;20209;-72
2023/03/30 04:57:56;;;;;;;4.28;1.90;;;;;;;;;;5011263;28;20179;-72
2023/03/30 05:00:21;;;;;;;8.70;2.50;;;;;;;;;;5011500;28;20692;-72
2023/03/30 05:02:46;;;;;;;9.20;2.25;;;;;;;;;;5009694;28;20207;-71
2023/03/30 05:05:12;;;;;;;7.65;2.75;;;;;;;;;;5007189;28;20183;-71
2023/03/30 05:07:37;;;;;;;7.93;2.50;;;;;;;;;;5009206;28;20182;-72
2023/03/30 05:10:02;;;;;;;7.95;3.08;;;;;;;;;;5010290;28;20252;-72
2023/03/30 05:12:27;;;;;;;8.18;2.50;;;;;;;;;;5010609;28;20175;-72
2023/03/30 05:14:53;;;;;;;7.45;2.70;;;;;;;;;;5010303;28;20608;-71
2023/03/30 05:17:18;;;;;;;6.22;3.50;;;;;;;;;;5006396;28;20168;-70
2023/03/30 05:19:43;;;;;;;8.80;3.67;;;;;;;;;;5004303;28;20206;-70
2023/03/30 05:22:08;;;;;;;9.35;2.33;;;;;;;;;;5004343;28;20230;-72
2023/03/30 05:24:33;;;;;;;10.90;2.97;;;;;;;;;;4999746;28;20172;-69
2023/03/30 05:26:59;;;;;;;7.97;3.15;;;;;;;;;;5006924;28;20175;-71
2023/03/30 05:29:24;;;;;;;11.70;3.70;;;;;;;;;;5008604;28;20205;-71
2023/03/30 05:31:49;;;;;;;6.68;3.15;;;;;;;;;;5009757;28;20216;-71
2023/03/30 05:34:15;;;;;;;4.57;2.85;;;;;;;;;;5004953;28;20183;-71
2023/03/30 05:36:40;;;;;;;7.45;3.90;;;;;;;;;;5009827;28;20183;-71
2023/03/30 05:39:06;;;;;;;8.02;3.40;;;;;;;;;;5009891;28;20226;-71
2023/03/30 05:41:31;;;;;;;10.02;3.85;;;;;;;;;;5004468;28;20195;-71
2023/03/30 05:43:56;;;;;;;9.52;3.78;;;;;;;;;;5001229;28;20734;-71
2023/03/30 05:46:22;;;;;;;14.50;3.43;;;;;;;;;;5010169;28;20233;-71
2023/03/30 05:48:47;;;;;;;11.50;3.50;;;;;;;;;;5013228;28;20181;-71
2023/03/30 05:51:12;;;;;;;9.82;3.03;;;;;;;;;;5017289;28;20190;-71
2023/03/30 05:53:37;;;;;;;13.98;4.05;;;;;;;;;;5013891;28;20184;-72
2023/03/30 05:56:03;;;;;;;15.75;4.13;;;;;;;;;;5016540;28;20180;-70
2023/03/30 05:58:28;;;;;;;14.80;4.20;;;;;;;;;;5009472;28;20564;-70
2023/03/30 06:00:56;;;;;;;13.50;4.30;;;;;;;;;;5003659;28;20700;-70
2023/03/30 06:03:21;;;;;;;7.22;2.75;;;;;;;;;;5013502;28;20699;-70
2023/03/30 06:05:46;;;;;;;12.63;3.40;;;;;;;;;;5016283;28;20170;-71
2023/03/30 06:08:12;;;;;;;8.25;3.28;;;;;;;;;;5015971;28;20178;-71
2023/03/30 06:10:37;;;;;;;14.50;3.70;;;;;;;;;;5017472;28;20448;-71
2023/03/30 06:13:03;;;;;;;14.43;4.77;;;;;;;;;;5019868;28;20191;-70
2023/03/30 06:15:28;;;;;;;8.52;2.67;;;;;;;;;;5014249;28;20623;-71
2023/03/30 06:17:54;;;;;;;16.55;3.33;;;;;;;;;;5016661;28;20676;-72
2023/03/30 06:20:20;;;;;;;13.55;5.18;;;;;;;;;;5013854;28;20700;-71
2023/03/30 06:22:46;;;;;;;10.07;2.78;;;;;;;;;;5017346;28;20258;-71
2023/03/30 06:25:12;;;;;;;17.55;3.00;;;;;;;;;;5016753;28;20262;-71
2023/03/30 06:27:37;;;;;;;10.18;2.83;;;;;;;;;;5017278;28;20209;-72
2023/03/30 06:30:03;;;;;;;13.30;2.63;;;;;;;;;;5016732;28;20647;-71
2023/03/30 06:32:28;;;;;;;12.40;2.50;;;;;;;;;;5017024;28;20229;-71
2023/03/30 06:34:53;;;;;;;9.27;2.90;;;;;;;;;;5013309;28;20188;-71
2023/03/30 06:37:19;;;;;;;11.65;2.70;;;;;;;;;;5017012;28;20182;-70
2023/03/30 06:39:44;;;;;;;14.68;4.38;;;;;;;;;;5014146;28;20218;-71
2023/03/30 06:42:10;;;;;;;14.40;2.80;;;;;;;;;;5015412;28;20565;-71
2023/03/30 06:44:35;;;;;;;9.93;3.17;;;;;;;;;;5017004;28;20220;-71
2023/03/30 06:47:01;;;;;;;12.50;2.97;;;;;;;;;;5015434;28;20185;-71
2023/03/30 06:49:27;;;;;;;13.15;3.58;;;;;;;;;;5014356;28;20716;-72
2023/03/30 06:51:52;;;;;;;15.02;4.50;;;;;;;;;;5010625;28;20181;-71
2023/03/30 06:54:19;;;;;;;11.70;2.42;;;;;;;;;;5008253;28;20214;-71
2023/03/30 06:56:45;;;;;;;9.02;2.85;;;;;;;;;;5016979;28;20262;-71
2023/03/30 06:59:10;;;;;;;13.18;3.13;;;;;;;;;;5016185;28;20198;-71
2023/03/30 07:01:35;;;;;;;9.90;2.67;;;;;;;;;;5014335;28;20202;-71
2023/03/30 07:04:01;;;;;;;10.05;3.03;;;;;;;;;;5007596;28;20172;-71
2023/03/30 07:06:26;;;;;;;11.93;2.78;;;;;;;;;;5014132;28;20254;-71
2023/03/30 07:08:52;;;;;;;14.77;4.22;;;;;;;;;;5014759;28;20209;-70
2023/03/30 07:11:17;;;;;;;14.32;3.03;;;;;;;;;;5014607;28;20217;-71
2023/03/30 07:13:42;;;;;;;15.10;3.10;;;;;;;;;;5011997;28;20191;-71
2023/03/30 07:16:08;;;;;;;11.55;3.55;;;;;;;;;;5014667;28;20672;-71
2023/03/30 07:18:33;;;;;;;18.38;4.80;;;;;;;;;;5004252;28;20225;-71
2023/03/30 07:20:59;;;;;;;13.55;3.22;;;;;;;;;;5005407;28;20207;-71
2023/03/30 07:23:24;;;;;;;12.02;4.78;;;;;;;;;;5010264;28;20179;-71
2023/03/30 07:25:50;;;;;;;12.48;3.78;;;;;;;;;;5010931;28;20183;-71
2023/03/30 07:28:16;;;;;;;11.13;3.63;;;;;;;;;;5007409;28;20262;-70
2023/03/30 07:30:41;;;;;;;15.25;3.95;;;;;;;;;;5012984;28;20758;-71
2023/03/30 07:33:06;;;;;;;12.10;3.00;;;;;;;;;;5002758;28;20184;-71
2023/03/30 07:35:31;;;;;;;15.85;3.40;;;;;;;;;;5005531;28;20171;-71
2023/03/30 07:37:57;;;;;;;14.65;3.25;;;;;;;;;;5003630;28;20600;-71
2023/03/30 07:40:22;;;;;;;11.05;3.88;;;;;;;;;;5003456;28;20211;-71
2023/03/30 07:42:49;;;;;;;14.63;4.38;;;;;;;;;;5003428;28;20179;-71
2023/03/30 07:45:14;;;;;;;14.38;4.38;;;;;;;;;;5003036;28;20649;-70
2023/03/30 07:47:40;;;;;;;14.57;3.22;;;;;;;;;;5014565;28;20175;-71
2023/03/30 07:50:05;;;;;;;12.70;3.78;;;;;;;;;;5002303;28;20219;-70
2023/03/30 07:52:31;;;;;;;20.95;4.20;;;;;;;;;;5010852;28;20247;-71
2023/03/30 07:54:56;;;;;;;14.05;4.85;;;;;;;;;;5010337;28;20178;-70
2023/03/30 07:57:22;;;;;;;14.63;4.68;;;;;;;;;;5006752;28;20190;-71
2023/03/30 07:59:47;;;;;;;18.17;5.00;;;;;;;;;;5012012;28;20203;-71
2023/03/30 08:02:13;;;;;;;10.25;3.13;;;;;;;;;;5010701;28;20287;-71
2023/03/30 08:04:38;;;;;;;11.50;3.40;;;;;;;;;;5006569;28;20175;-71
2023/03/30 08:07:03;;;;;;;17.27;3.40;;;;;;;;;;5008871;28;20179;-71
2023/03/30 08:09:29;;;;;;;17.08;3.67;;;;;;;;;;5004749;28;20239;-71
2023/03/30 08:11:54;;;;;;;13.18;3.47;;;;;;;;;;5004897;28;20551;-72
2023/03/30 08:14:20;;;;;;;16.08;4.05;;;;;;;;;;4998171;28;20176;-71
2023/03/30 08:16:45;;;;;;;18.23;3.45;;;;;;;;;;5007811;28;20187;-71
2023/03/30 08:19:10;;;;;;;13.40;3.45;;;;;;;;;;5003551;28;20200;-71
2023/03/30 08:21:36;;;;;;;20.67;4.63;;;;;;;;;;5012124;28;20197;-71
2023/03/30 08:24:01;;;;;;;22.60;4.03;;;;;;;;;;5010475;28;20177;-71
2023/03/30 08:26:27;;;;;;;18.10;4.38;;;;;;;;;;5008558;28;20176;-72
2023/03/30 08:28:52;;;;;;;9.60;2.50;;;;;;;;;;5008675;28;20262;-72
2023/03/30 08:31:19;;;;;;;11.57;3.00;;;;;;;;;;5004448;28;20238;-71
2023/03/30 08:33:45;;;;;;;14.52;3.45;;;;;;;;;;5003573;28;20199;-70
2023/03/30 08:36:11;;;;;;;11.98;3.67;;;;;;;;;;4995566;28;20203;-70
2023/03/30 08:38:36;;;;;;;13.60;4.20;;;;;;;;;;5002974;28;20172;-70
2023/03/30 08:41:17;;;;;;;16.42;4.40;;;;;;;;;;5005742;28;20218;-70
2023/03/30 08:43:49;;;;;;;12.98;3.30;;;;;;;;;;5001572;28;20183;-69
2023/03/30 08:46:15;;;;;;;15.90;4.78;;;;;;;;;;5001143;28;20171;-70
2023/03/30 08:48:41;;;;;;;15.35;3.80;;;;;;;;;;5008867;28;20175;-70
2023/03/30 08:51:07;;;;;;;14.45;3.53;;;;;;;;;;5003872;28;20270;-70
2023/03/30 08:53:32;;;;;;;17.38;4.93;;;;;;;;;;5002270;28;20767;-70
2023/03/30 08:55:57;;;;;;;14.05;3.88;;;;;;;;;;4998807;28;20183;-70
2023/03/30 08:58:26;;;;;;;17.60;3.80;;;;;;;;;;5003591;28;20580;-70
2023/03/30 09:01:09;;;;;;;14.98;3.72;;;;;;;;;;5012943;28;20199;-70
2023/03/30 09:03:37;;;;;;;14.38;5.13;;;;;;;;;;5010930;28;20667;-70
2023/03/30 09:06:06;;;;;;;17.60;3.90;;;;;;;;;;4999709;28;20182;-70
2023/03/30 09:08:32;;;;;;;11.15;2.97;;;;;;;;;;5009045;28;20263;-70
2023/03/30 09:10:59;;;;;;;20.20;5.90;;;;;;;;;;5007126;28;20282;-70
2023/03/30 09:13:27;;;;;;;14.10;3.58;;;;;;;;;;5002236;28;20190;-70
2023/03/30 09:16:02;;;;;;;20.55;4.57;;;;;;;;;;5001301;28;20624;-70
2023/03/30 09:18:31;;;;;;;24.20;5.68;;;;;;;;;;5004497;28;20179;-70
2023/03/30 09:21:04;;;;;;;20.85;4.30;;;;;;;;;;5000202;28;20278;-70
2023/03/30 09:23:30;;;;;;;23.65;4.93;;;;;;;;;;5001768;28;20179;-70
2023/03/30 09:26:03;;;;;;;32.13;7.03;;;;;;;;;;5010093;28;20253;-70
2023/03/30 09:28:47;;;;;;;24.02;4.40;;;;;;;;;;5007415;28;20170;-70
2023/03/30 09:31:15;;;;;;;15.70;3.25;;;;;;;;;;5009358;28;20576;-70
2023/03/30 09:33:45;;;;;;;16.15;3.70;;;;;;;;;;5006814;28;20175;-70
2023/03/30 09:36:20;;;;;;;22.42;5.38;;;;;;;;;;5001614;28;20342;-70
2023/03/30 09:38:45;;;;;;;15.70;3.22;;;;;;;;;;5000322;28;20172;-70
2023/03/30 09:41:10;;;;;;;17.58;4.57;;;;;;;;;;5001189;28;20206;-70
2023/03/30 09:43:44;;;;;;;21.83;4.97;;;;;;;;;;4998552;28;20199;-69
2023/03/30 09:46:11;;;;;;;17.75;4.07;;;;;;;;;;5000875;28;20175;-70
2023/03/30 09:48:37;;;;;;;15.27;4.57;;;;;;;;;;5011527;28;20175;-69
2023/03/30 09:51:12;;;;;;;20.67;4.68;;;;;;;;;;5005424;28;20218;-69
2023/03/30 09:53:41;;;;;;;20.92;4.65;;;;;;;;;;4999946;28;20174;-69
2023/03/30 09:56:09;;;;;;;20.38;5.80;;;;;;;;;;5004333;28;20182;-70
2023/03/30 09:58:35;;;;;;;14.77;3.33;;;;;;;;;;5006690;28;20226;-69
2023/03/30 10:01:12;;;;;;;19.10;4.20;;;;;;;;;;5007390;28;20211;-70
2023/03/30 10:03:38;;;;;;;20.73;5.07;;;;;;;;;;5003166;28;20171;-69
2023/03/30 10:06:17;;;;;;;23.58;5.40;;;;;;;;;;5007772;28;20175;-69
2023/03/30 10:08:42;;;;;;;15.65;3.95;;;;;;;;;;4999772;28;20175;-69
2023/03/30 10:11:08;;;;;;;19.08;3.85;;;;;;;;;;5010243;28;20720;-70
2023/03/30 10:13:37;;;;;;;16.48;4.72;;;;;;;;;;5009473;28;20700;-69
2023/03/30 10:16:07;;;;;;;16.45;4.20;;;;;;;;;;4999591;28;20594;-70
2023/03/30 10:18:38;;;;;;;16.77;3.50;;;;;;;;;;5006552;28;20179;-69
2023/03/30 10:21:03;;;;;;;20.00;3.83;;;;;;;;;;5009193;28;20235;-69
2023/03/30 10:23:32;;;;;;;19.75;5.55;;;;;;;;;;5005869;28;20195;-70
2023/03/30 10:26:01;;;;;;;20.17;4.53;;;;;;;;;;4999044;28;20183;-69
2023/03/30 10:28:28;;;;;;;17.67;3.90;;;;;;;;;;5003755;28;20175;-69
2023/03/30 10:30:55;;;;;;;16.90;3.35;;;;;;;;;;5005723;28;20218;-70
2023/03/30 10:33:21;;;;;;;15.20;3.85;;;;;;;;;;5004747;28;20176;-70
2023/03/30 10:35:48;;;;;;;19.38;4.93;;;;;;;;;;5007740;28;20179;-69
2023/03/30 10:38:14;;;;;;;22.45;4.68;;;;;;;;;;5009573;28;20702;-69
2023/03/30 10:40:40;;;;;;;15.48;3.78;;;;;;;;;;5009135;28;20211;-69
2023/03/30 10:43:21;;;;;;;17.08;4.40;;;;;;;;;;5009621;28;20206;-69
2023/03/30 10:45:51;;;;;;;18.88;5.78;;;;;;;;;;5002937;28;20179;-70
2023/03/30 10:48:25;;;;;;;16.30;4.68;;;;;;;;;;5005158;28;20175;-69
2023/03/30 10:50:57;;;;;;;14.52;3.47;;;;;;;;;;5006298;28;20191;-69
2023/03/30 10:53:30;;;;;;;19.75;4.05;;;;;;;;;;5008202;28;20183;-69
2023/03/30 10:56:07;;;;;;;21.55;6.82;;;;;;;;;;4999830;28;20505;-70
2023/03/30 10:58:32;;;;;;;16.38;3.88;;;;;;;;;;5001723;28;20202;-69
2023/03/30 11:00:57;;;;;;;12.88;3.92;;;;;;;;;;5003774;28;20207;-70
2023/03/30 11:03:26;;;;;;;17.08;3.70;;;;;;;;;;5008267;28;20258;-70
2023/03/30 11:05:53;;;;;;;13.07;2.72;;;;;;;;;;5010698;28;20235;-70
2023/03/30 11:08:28;;;;;;;17.70;3.75;;;;;;;;;;5002602;28;20584;-69
2023/03/30 11:10:53;;;;;;;17.02;4.45;;;;;;;;;;5004544;28;20210;-70
2023/03/30 11:13:24;;;;;;;14.88;3.30;;;;;;;;;;5007503;28;20233;-70
2023/03/30 11:15:50;;;;;;;14.07;3.08;;;;;;;;;;5007297;28;20184;-68
2023/03/30 11:18:19;;;;;;;22.35;4.97;;;;;;;;;;5003037;28;20183;-70
2023/03/30 11:21:03;;;;;;;13.00;3.97;;;;;;;;;;5007355;28;20202;-70
2023/03/30 11:23:28;;;;;;;24.98;4.35;;;;;;;;;;5005740;28;20202;-70
2023/03/30 11:25:56;;;;;;;10.47;2.93;;;;;;;;;;5010670;28;20254;-70
2023/03/30 11:28:31;;;;;;;14.90;4.43;;;;;;;;;;5009420;28;20616;-70
2023/03/30 11:31:01;;;;;;;13.20;3.83;;;;;;;;;;5008417;28;20301;-70
2023/03/30 11:33:40;;;;;;;12.57;2.97;;;;;;;;;;5007232;28;20562;-70
2023/03/30 11:36:17;;;;;;;13.38;3.28;;;;;;;;;;5005825;28;20175;-69
2023/03/30 11:38:46;;;;;;;16.70;5.80;;;;;;;;;;5008622;28;20182;-70
2023/03/30 11:41:18;;;;;;;17.63;4.80;;;;;;;;;;5005786;28;20191;-70
2023/03/30 11:43:44;;;;;;;13.48;3.15;;;;;;;;;;5000415;28;20242;-70
2023/03/30 11:46:12;;;;;;;18.83;3.53;;;;;;;;;;5005906;28;20174;-69
2023/03/30 11:48:37;;;;;;;12.70;2.90;;;;;;;;;;5008011;28;20171;-69
2023/03/30 11:51:10;;;;;;;10.43;3.00;;;;;;;;;;5011135;28;20214;-69
2023/03/30 11:53:47;;;;;;;17.83;3.30;;;;;;;;;;5009968;28;20775;-70
2023/03/30 11:56:12;;;;;;;11.50;3.95;;;;;;;;;;5011219;28;20229;-70
2023/03/30 11:58:40;;;;;;;21.13;4.40;;;;;;;;;;5014075;28;20841;-69
2023/03/30 12:01:21;;;;;;;15.60;3.28;;;;;;;;;;5003384;28;20203;-69
2023/03/30 12:03:49;;;;;;;13.60;3.47;;;;;;;;;;4995176;28;20184;-69
2023/03/30 12:06:30;;;;;;;17.88;4.78;;;;;;;;;;5004416;28;20226;-69
2023/03/30 12:09:13;;;;;;;19.95;3.60;;;;;;;;;;5004623;28;20180;-69
2023/03/30 12:11:56;;;;;;;15.40;3.60;;;;;;;;;;5005811;28;20175;-69
2023/03/30 12:14:48;;;;;;;18.25;4.28;;;;;;;;;;5003062;28;20182;-69
2023/03/30 12:17:19;;;;;;;19.25;4.05;;;;;;;;;;4998690;28;20718;-69
2023/03/30 12:19:47;;;;;;;22.13;4.78;;;;;;;;;;5009681;28;20257;-69
2023/03/30 12:22:12;;;;;;;18.67;4.00;;;;;;;;;;5002463;28;20268;-70
2023/03/30 12:24:40;;;;;;;20.23;4.00;;;;;;;;;;4999251;28;20188;-69
2023/03/30 12:27:08;;;;;;;18.08;4.22;;;;;;;;;;5004254;28;20175;-69
2023/03/30 12:29:44;;;;;;;19.88;3.83;;;;;;;;;;5006576;28;20215;-70
2023/03/30 12:32:28;;;;;;;18.15;5.00;;;;;;;;;;5005186;28;20190;-69
2023/03/30 12:34:53;;;;;;;14.57;3.33;;;;;;;;;;5011762;28;20191;-70
2023/03/30 12:37:33;;;;;;;22.42;4.10;;;;;;;;;;5002564;28;20196;-70
2023/03/30 12:40:05;;;;;;;15.40;3.70;;;;;;;;;;5006349;28;20230;-69
2023/03/30 12:42:38;;;;;;;21.50;3.53;;;;;;;;;;5009280;28;20241;-70
2023/03/30 12:45:25;;;;;;;24.13;4.32;;;;;;;;;;5009023;28;20167;-69
2023/03/30 12:47:56;;;;;;;12.57;3.63;;;;;;;;;;5009390;28;20279;-69
2023/03/30 12:50:37;;;;;;;22.48;5.22;;;;;;;;;;5002839;28;20192;-69
2023/03/30 12:53:24;;;;;;;16.67;3.55;;;;;;;;;;4999511;28;20271;-69
2023/03/30 12:55:58;;;;;;;21.88;5.30;;;;;;;;;;5011492;28;20179;-69
2023/03/30 12:58:35;;;;;;;23.35;4.32;;;;;;;;;;5000577;28;20181;-69
2023/03/30 13:01:16;;;;;;;23.23;5.07;;;;;;;;;;5007346;28;20214;-70
2023/03/30 13:03:51;;;;;;;22.15;4.50;;;;;;;;;;5005850;28;20171;-69
2023/03/30 13:06:22;;;;;;;14.38;4.15;;;;;;;;;;5004494;28;20180;-70
2023/03/30 13:08:52;;;;;;;21.65;3.85;;;;;;;;;;5009613;28;20190;-69
2023/03/30 13:11:19;;;;;;;23.92;4.85;;;;;;;;;;5005372;28;20188;-69
2023/03/30 13:13:57;;;;;;;21.48;3.92;;;;;;;;;;5005282;28;20191;-69
2023/03/30 13:16:41;;;;;;;16.52;3.67;;;;;;;;;;5003340;28;20689;-69
2023/03/30 13:19:19;;;;;;;26.27;6.30;;;;;;;;;;4999225;28;20725;-69
2023/03/30 13:21:48;;;;;;;14.45;3.60;;;;;;;;;;5024453;28;20222;-69
2023/03/30 13:24:35;;;;;;;21.10;3.83;;;;;;;;;;5004059;28;20183;-69
2023/03/30 13:27:26;;;;;;;14.02;4.20;;;;;;;;;;5000845;28;20188;-69
2023/03/30 13:29:55;;;;;;;27.17;6.97;;;;;;;;;;5004812;28;20230;-69
2023/03/30 13:32:23;;;;;;;13.30;3.33;;;;;;;;;;5003422;28;20180;-69
2023/03/30 13:35:17;;;;;;;18.60;3.40;;;;;;;;;;5005744;28;20203;-69
2023/03/30 13:38:10;;;;;;;20.77;4.22;;;;;;;;;;4995202;28;20698;-69
2023/03/30 13:40:44;;;;;;;12.57;3.10;;;;;;;;;;5001377;28;20586;-70
2023/03/30 13:43:09;;;;;;;15.45;3.45;;;;;;;;;;4998877;28;20318;-69
2023/03/30 13:45:45;;;;;;;14.07;3.20;;;;;;;;;;5001929;28;20223;-69
2023/03/30 13:48:29;;;;;;;14.68;3.90;;;;;;;;;;5000747;28;20210;-69
2023/03/30 13:50:59;;;;;;;21.60;4.18;;;;;;;;;;4997440;28;20203;-69
2023/03/30 13:53:27;;;;;;;17.15;5.35;;;;;;;;;;5005326;28;20248;-69
2023/03/30 13:55:52;;;;;;;14.35;3.47;;;;;;;;;;5010064;28;20171;-69
2023/03/30 13:58:22;;;;;;;14.18;3.20;;;;;;;;;;5003353;28;20210;-69
2023/03/30 14:00:49;;;;;;;13.23;2.80;;;;;;;;;;5010371;28;20207;-69
2023/03/30 14:03:26;;;;;;;15.15;2.55;;;;;;;;;;5003637;28;20212;-69
2023/03/30 14:05:53;;;;;;;12.48;2.45;;;;;;;;;;5007969;28;20183;-69
2023/03/30 14:08:18;;;;;;;10.63;2.42;;;;;;;;;;5006492;28;20178;-69
2023/03/30 14:10:48;;;;;;;21.20;4.78;;;;;;;;;;5010714;28;20195;-69
2023/03/30 14:13:14;;;;;;;13.00;3.30;;;;;;;;;;5011012;28;20257;-69
2023/03/30 14:15:39;;;;;;;11.75;3.60;;;;;;;;;;5012596;28;20266;-69
2023/03/30 14:18:05;;;;;;;14.18;5.32;;;;;;;;;;5013363;28;20264;-69
2023/03/30 14:20:43;;;;;;;13.88;3.35;;;;;;;;;;5013784;28;20218;-69
2023/03/30 14:23:27;;;;;;;12.43;4.50;;;;;;;;;;5005138;28;20181;-69
2023/03/30 14:25:56;;;;;;;13.30;2.60;;;;;;;;;;4999941;28;20180;-69
2023/03/30 14:28:22;;;;;;;13.65;4.03;;;;;;;;;;5012287;28;20167;-69
2023/03/30 14:30:48;;;;;;;13.75;2.75;;;;;;;;;;5014030;28;20223;-69
2023/03/30 14:33:13;;;;;;;11.55;2.20;;;;;;;;;;5014898;28;20537;-70
2023/03/30 14:35:43;;;;;;;13.50;3.58;;;;;;;;;;5008343;28;20185;-69
2023/03/30 14:38:29;;;;;;;13.15;4.43;;;;;;;;;;5008340;28;20175;-70
2023/03/30 14:40:54;;;;;;;15.27;2.92;;;;;;;;;;5010012;28;20261;-69
2023/03/30 14:43:30;;;;;;;12.05;2.88;;;;;;;;;;5008321;28;20575;-69
2023/03/30 14:45:57;;;;;;;10.70;2.03;;;;;;;;;;5004852;28;20254;-69